This is the latest recevied weather packets stored in our database for station/object WP3OF-5. If no packets are shown the sender has not sent any weather packets the latest 10 day(s).
| Time | Temp. | Humidity | Pressure | Rain* | Wind** | Luminosity | Snow |
|---|---|---|---|---|---|---|---|
| 1777868957 | 20.56° C | 95% | 1017.7 hPa | 0 mm | - | - | - |
| 1777868653 | 20.56° C | 95% | 1017.6 hPa | 0 mm | - | - | - |
| 1777868350 | 20.56° C | 95% | 1017.8 hPa | 0 mm | - | - | - |
| 1777868046 | 20.56° C | 95% | 1017.9 hPa | 0 mm | - | - | - |
| 1777867742 | 20.56° C | 95% | 1017.9 hPa | 0 mm | - | - | - |
| 1777867440 | 21.11° C | 95% | 1017.9 hPa | 0 mm | - | - | - |
| 1777867135 | 21.11° C | 95% | 1017.8 hPa | 0 mm | - | - | - |
| 1777866530 | 21.11° C | 94% | 1017.9 hPa | 0 mm | - | - | - |
| 1777865016 | 21.11° C | 94% | 1017.9 hPa | 0 mm | - | - | - |
| 1777863804 | 21.67° C | 94% | 1017.9 hPa | 0 mm | - | - | - |
| 1777847132 | 27.22° C | 82% | 1015.3 hPa | 0 mm | - | - | - |
| 1777845012 | 27.78° C | 79% | 1015.1 hPa | 0 mm | - | - | - |
| 1777844710 | 27.78° C | 78% | 1015.3 hPa | 0 mm | - | - | - |
| 1777844105 | 27.78° C | 78% | 1015.5 hPa | 0 mm | - | - | - |
| 1777842286 | 27.78° C | 80% | 1015.2 hPa | 0 mm | - | - | - |
| 1777841379 | 28.33° C | 79% | 1015.1 hPa | 0 mm | - | - | - |
| 1777840167 | 27.78° C | 77% | 1015 hPa | 0 mm | - | - | - |
| 1777839260 | 30° C | 72% | 1014.8 hPa | 0 mm | - | - | - |
| 1777838654 | 30° C | 71% | 1014.8 hPa | 0 mm | - | - | - |
| 1777836225 | 30.56° C | 70% | 1015.5 hPa | 0 mm | - | - | - |
| 1777835315 | 30.56° C | 71% | 1015.9 hPa | 0 mm | - | - | - |
| 1777834406 | 28.89° C | 74% | 1015.8 hPa | 0 mm | - | - | - |
| 1777833802 | 28.33° C | 76% | 1015.8 hPa | 0 mm | - | - | - |
| 1777833195 | 28.89° C | 75% | 1016.1 hPa | 0 mm | - | - | - |
| 1777832892 | 28.89° C | 74% | 1016 hPa | 0 mm | - | - | - |
* Rain latest hour (hover to see other rain measurements)
** Current wind speed in m/s (hover to see current wind gust speed)